createdAt,value
2022-09-28T10:28:20.709Z,983.25
2022-09-28T10:31:58.115Z,983.27
2022-09-28T10:34:57.688Z,983.36
2022-09-28T10:47:35.827Z,983.38
2022-09-28T10:48:32.677Z,983.33
2022-09-28T10:49:32.396Z,983.38
2022-09-28T10:54:08.047Z,983.36
2022-09-28T10:55:07.562Z,983.36
2022-09-28T10:56:07.599Z,983.36
2022-09-28T10:57:12.748Z,983.40
2022-09-28T10:58:07.514Z,983.33
2022-09-28T10:59:07.519Z,983.33
2022-09-28T11:00:07.476Z,983.33
2022-09-28T11:01:07.519Z,983.34
2022-09-28T11:02:07.524Z,983.37
2022-09-28T11:03:07.429Z,983.40
2022-09-28T11:04:07.821Z,983.38
2022-09-28T11:05:07.404Z,983.39
2022-09-28T11:06:07.375Z,983.38
2022-09-28T11:07:07.363Z,983.38
2022-09-28T11:08:07.343Z,983.37
2022-09-28T11:09:07.337Z,983.35
2022-09-28T11:10:07.323Z,983.36
2022-09-28T11:11:34.997Z,983.36
2022-09-28T11:12:07.276Z,983.37
2022-09-28T11:13:07.268Z,983.33
2022-09-28T11:14:07.262Z,983.28
2022-09-28T11:15:07.233Z,983.32
2022-09-28T11:16:07.218Z,983.33
2022-09-28T11:17:07.241Z,983.34
2022-09-28T11:18:07.175Z,983.30
2022-09-28T11:19:07.200Z,983.33
2022-09-28T11:20:07.147Z,983.35
2022-09-28T11:21:10.390Z,983.32
2022-09-28T11:22:07.123Z,983.33
2022-09-28T11:23:36.544Z,983.31
2022-09-28T11:24:07.098Z,983.33
2022-09-28T11:25:07.101Z,983.35
2022-09-28T11:26:07.060Z,983.31
2022-09-28T11:27:07.036Z,983.32
2022-09-28T11:28:07.075Z,983.37
2022-09-28T11:29:07.033Z,983.31
2022-09-28T11:30:07.083Z,983.40
2022-09-28T11:31:07.036Z,983.38
2022-09-28T11:32:06.954Z,983.35
2022-09-28T11:33:06.945Z,983.34
2022-09-28T11:34:06.957Z,983.38
2022-09-28T11:35:06.907Z,983.37
2022-09-28T11:36:06.896Z,983.35
2022-09-28T11:37:06.917Z,983.34
2022-09-28T11:38:06.857Z,983.40
2022-09-28T11:39:06.902Z,983.41
2022-09-28T11:40:06.826Z,983.43
2022-09-28T11:41:06.811Z,983.47
2022-09-28T11:42:06.818Z,983.48
2022-09-28T11:43:06.790Z,983.50
2022-09-28T11:44:06.764Z,983.52
2022-09-28T11:45:06.753Z,983.50
2022-09-28T11:46:06.780Z,983.52
2022-09-28T11:47:06.717Z,983.51
2022-09-28T11:48:06.706Z,983.51
2022-09-28T11:49:06.687Z,983.49
2022-09-28T11:50:06.686Z,983.55
2022-09-28T11:51:06.664Z,983.55
2022-09-28T11:52:06.644Z,983.54
2022-09-28T11:53:06.621Z,983.56
2022-09-28T11:54:06.602Z,983.58
2022-09-28T11:55:06.589Z,983.55
2022-09-28T11:56:08.865Z,983.58
2022-09-28T11:57:06.562Z,983.54
2022-09-28T11:58:06.571Z,983.56
2022-09-28T11:59:06.536Z,983.54
2022-09-28T12:00:06.518Z,983.60
2022-09-28T12:01:06.500Z,983.57
2022-09-28T12:02:06.592Z,983.58
2022-09-28T12:05:48.440Z,983.63
2022-09-28T12:06:48.458Z,983.57
2022-09-28T12:07:48.430Z,983.65
2022-09-28T12:08:48.406Z,983.64
2022-09-28T12:09:48.382Z,983.64
2022-09-28T12:10:48.369Z,983.63
2022-09-28T12:11:48.341Z,983.67
2022-09-28T12:12:48.371Z,983.63
2022-09-28T12:13:48.307Z,983.59
2022-09-28T12:14:48.304Z,983.57
2022-09-28T12:16:15.095Z,983.61
2022-09-28T12:17:48.299Z,983.61
2022-09-28T12:18:48.342Z,983.61
2022-09-28T12:19:48.214Z,983.64
2022-09-28T12:20:48.204Z,983.62
2022-09-28T12:21:48.198Z,983.65
2022-09-28T12:22:48.172Z,983.65
2022-09-28T12:23:48.151Z,983.64
2022-09-28T12:24:48.155Z,983.64
2022-09-28T12:25:48.122Z,983.66
2022-09-28T12:26:48.107Z,983.66
2022-09-28T12:27:48.089Z,983.64
2022-09-28T12:28:48.078Z,983.62
2022-09-28T12:29:48.062Z,983.64
2022-09-28T12:30:48.082Z,983.65
2022-09-28T12:31:48.041Z,983.65
2022-09-28T12:32:48.019Z,983.61
2022-09-28T12:33:48.045Z,983.65
2022-09-28T12:34:47.984Z,983.60
2022-09-28T12:35:47.969Z,983.62
2022-09-28T12:36:47.956Z,983.64
2022-09-28T12:37:50.547Z,983.65
2022-09-28T12:38:54.120Z,983.64
2022-09-28T12:39:57.710Z,983.65
2022-09-28T12:40:47.965Z,983.64
2022-09-28T12:41:47.883Z,983.66
2022-09-28T12:42:47.882Z,983.66
2022-09-28T12:43:47.849Z,983.73
2022-09-28T12:44:47.831Z,983.72
2022-09-28T12:46:10.396Z,983.68
2022-09-28T12:46:47.939Z,983.70
2022-09-28T12:47:47.785Z,983.72
2022-09-28T12:49:03.029Z,983.73
2022-09-28T12:50:36.235Z,983.75
2022-09-28T12:50:56.219Z,983.77
2022-09-28T12:51:47.784Z,983.73
2022-09-28T12:52:47.727Z,983.75
2022-09-28T12:53:47.707Z,983.76
2022-09-28T12:54:47.678Z,983.84
2022-09-28T12:55:47.736Z,983.81
2022-09-28T12:56:47.681Z,983.82
2022-09-28T12:57:47.666Z,983.79
2022-09-28T12:58:47.620Z,983.84
2022-09-28T12:59:47.612Z,983.84
2022-09-28T13:00:47.591Z,983.83
2022-09-28T15:43:58.594Z,983.39
2022-09-28T15:45:46.230Z,983.40
2022-09-28T15:45:58.961Z,983.43
2022-09-28T15:46:58.553Z,983.42
2022-09-28T15:47:58.548Z,983.45
2022-09-28T16:09:16.194Z,984.07
2022-09-28T16:10:16.063Z,984.14
2022-09-28T16:11:16.058Z,984.13
2022-09-28T16:12:16.044Z,984.15
2022-09-28T16:13:16.050Z,984.21
2022-09-28T16:14:16.032Z,984.18
2022-09-28T16:15:15.998Z,984.17
2022-09-28T16:16:16.273Z,984.21
2022-09-28T16:17:15.977Z,984.24
2022-09-28T16:18:15.958Z,984.22
2022-09-28T16:19:15.973Z,984.24
2022-09-28T16:20:15.943Z,984.30
2022-09-28T16:21:15.922Z,984.31
2022-09-28T16:22:15.931Z,984.29
2022-09-28T16:23:15.895Z,984.32
2022-09-28T16:24:15.898Z,984.29
2022-09-28T16:25:15.868Z,984.26
2022-09-28T16:26:15.850Z,984.24
2022-09-28T16:27:15.896Z,984.26
2022-09-28T16:28:15.828Z,984.27
2022-09-28T16:29:15.941Z,984.25
2022-09-28T16:30:15.808Z,984.29
2022-09-28T16:31:15.831Z,984.30
2022-09-28T16:32:15.774Z,984.26
2022-09-28T16:33:15.758Z,984.32
2022-09-28T16:34:15.812Z,984.33
2022-09-28T16:35:15.728Z,984.31
2022-09-28T16:36:15.715Z,984.34
2022-09-28T16:37:15.714Z,984.30
2022-09-28T16:38:15.688Z,984.32
2022-09-28T16:39:15.673Z,984.29
2022-09-28T16:40:15.684Z,984.36
2022-09-28T16:41:15.640Z,984.33
2022-09-28T16:42:15.632Z,984.35
2022-09-28T16:43:15.613Z,984.37
2022-09-28T16:44:15.603Z,984.36
2022-09-28T16:45:15.651Z,984.42
2022-09-28T16:46:15.650Z,984.44
2022-09-28T16:47:15.553Z,984.45
2022-09-28T16:48:15.548Z,984.43
2022-09-28T16:49:15.597Z,984.43
2022-09-28T16:50:15.514Z,984.45
2022-09-28T16:51:15.496Z,984.46
2022-09-28T16:52:15.502Z,984.46
2022-09-28T16:53:15.468Z,984.48
2022-09-28T16:54:15.516Z,984.53
2022-09-28T16:55:38.852Z,984.59
2022-09-28T16:56:15.429Z,984.56
2022-09-28T16:57:15.408Z,984.55
2022-09-28T16:58:15.394Z,984.57
2022-09-28T16:59:15.457Z,984.56
2022-09-28T17:00:15.458Z,984.57
2022-09-28T17:01:15.394Z,984.57
2022-09-28T17:02:30.083Z,984.57
2022-09-28T17:03:15.458Z,984.57
2022-09-28T17:04:15.313Z,984.60
2022-09-28T17:05:15.296Z,984.59
2022-09-28T17:06:15.284Z,984.61
2022-09-28T17:07:15.285Z,984.61
2022-09-28T17:08:15.251Z,984.62
2022-09-28T17:09:15.242Z,984.64
2022-09-28T17:10:15.219Z,984.68
2022-09-28T17:11:20.183Z,984.67
2022-09-28T17:12:15.243Z,984.69
2022-09-28T17:13:15.172Z,984.72
2022-09-28T17:14:15.162Z,984.73
2022-09-28T17:15:15.140Z,984.75
2022-09-28T17:16:15.157Z,984.77
2022-09-28T17:17:17.139Z,984.76
2022-09-28T17:18:15.153Z,984.74
2022-09-28T17:19:15.078Z,984.77
2022-09-28T17:20:15.071Z,984.80
2022-09-28T17:21:15.050Z,984.77
2022-09-28T17:22:15.041Z,984.83
2022-09-28T17:23:15.016Z,984.85
2022-09-28T17:24:15.068Z,984.85
2022-09-28T17:25:14.996Z,984.85
2022-09-28T17:26:14.975Z,984.82
2022-09-28T17:27:14.967Z,984.82
2022-09-28T17:28:14.956Z,984.84
2022-09-28T17:29:15.129Z,984.83
2022-09-28T17:30:14.914Z,984.86
2022-09-28T17:31:14.970Z,984.84
2022-09-28T17:32:14.887Z,984.87
2022-09-28T17:33:14.876Z,984.86
2022-09-28T17:34:14.856Z,984.85
2022-09-28T17:35:24.053Z,984.89
2022-09-28T17:36:14.846Z,984.87
2022-09-28T17:37:14.828Z,984.92
2022-09-28T17:38:14.793Z,984.89
2022-09-28T17:39:14.776Z,984.88
2022-09-28T17:40:14.800Z,984.87
2022-09-28T17:41:19.412Z,984.90
2022-09-28T17:42:14.730Z,984.84
2022-09-28T17:43:14.715Z,984.86
2022-09-28T17:44:14.757Z,984.88
2022-09-28T17:45:14.684Z,984.89
2022-09-28T17:46:14.788Z,984.93
2022-09-28T17:47:14.652Z,984.93
2022-09-28T17:48:14.641Z,984.97
2022-09-28T17:49:14.624Z,984.98
2022-09-28T17:50:14.605Z,984.97
2022-09-28T17:51:14.588Z,984.95
2022-09-28T17:52:14.601Z,984.95
2022-09-28T17:53:14.558Z,984.98
2022-09-28T17:54:14.545Z,985.02
2022-09-28T17:55:14.583Z,985.01
2022-09-28T17:56:14.514Z,985.00
2022-09-28T17:57:14.498Z,985.00
2022-09-28T17:58:14.482Z,985.02
2022-09-28T17:59:14.469Z,985.03
2022-09-28T18:00:14.456Z,985.02
2022-09-28T18:01:14.468Z,985.05
2022-09-28T18:02:14.423Z,985.03
2022-09-28T18:03:14.405Z,985.06
2022-09-28T18:04:33.426Z,985.06
2022-09-28T18:05:14.370Z,985.07
2022-09-28T18:06:14.405Z,985.06
2022-09-28T18:07:14.345Z,985.07
2022-09-28T18:08:14.342Z,985.08
2022-09-28T18:09:14.310Z,985.09
2022-09-28T18:10:14.293Z,985.07
2022-09-28T18:11:14.279Z,985.04
2022-09-28T18:12:14.299Z,985.09
2022-09-28T18:13:14.245Z,985.06
2022-09-28T18:14:14.279Z,985.08
2022-09-28T18:15:14.213Z,985.11
2022-09-28T18:16:14.314Z,985.10
2022-09-28T18:17:14.182Z,985.08
2022-09-28T18:18:14.168Z,985.11
2022-09-28T18:19:14.151Z,985.08
2022-09-28T18:20:14.283Z,985.13
2022-09-28T18:21:14.120Z,985.14
2022-09-28T18:22:14.105Z,985.12
2022-09-28T18:23:14.085Z,985.15
2022-09-28T18:24:14.172Z,985.18
2022-09-28T18:25:14.055Z,985.15
2022-09-28T18:26:14.045Z,985.20
2022-09-28T18:27:14.037Z,985.20
2022-09-28T18:28:14.009Z,985.19
2022-09-28T18:29:13.991Z,985.21
2022-09-28T18:30:14.001Z,985.22
2022-09-28T18:31:14.028Z,985.22
2022-09-28T18:32:13.944Z,985.28
2022-09-28T18:33:13.930Z,985.22
2022-09-28T18:34:13.961Z,985.25
2022-09-28T18:35:13.896Z,985.24
2022-09-28T18:36:13.882Z,985.23
2022-09-28T18:37:13.862Z,985.23
2022-09-28T18:38:13.849Z,985.17
2022-09-28T18:39:13.855Z,985.20
2022-09-28T18:40:13.818Z,985.21
2022-09-28T18:41:13.798Z,985.20
2022-09-28T18:42:13.785Z,985.18
2022-09-28T18:43:13.790Z,985.19
2022-09-28T18:44:13.756Z,985.20
2022-09-28T18:45:13.740Z,985.16
2022-09-28T18:46:13.738Z,985.17
2022-09-28T18:47:13.701Z,985.20
2022-09-28T18:48:13.688Z,985.22
2022-09-28T18:49:13.668Z,985.24
2022-09-28T18:50:13.720Z,985.26
2022-09-28T18:51:13.642Z,985.25
2022-09-28T18:52:13.625Z,985.26
2022-09-28T18:53:13.642Z,985.26
2022-09-28T18:54:13.587Z,985.29
2022-09-28T18:55:13.570Z,985.31
2022-09-28T18:56:13.587Z,985.32
2022-09-28T18:57:13.543Z,985.31
2022-09-28T18:58:13.522Z,985.29
2022-09-28T18:59:13.559Z,985.34
2022-09-28T19:00:13.492Z,985.34
2022-09-28T19:01:30.814Z,985.40
2022-09-28T19:02:13.578Z,985.39
2022-09-28T19:03:13.567Z,985.38
2022-09-28T19:04:13.427Z,985.35
2022-09-28T19:05:13.415Z,985.40
2022-09-28T19:06:13.399Z,985.44
2022-09-28T19:07:13.384Z,985.42
2022-09-28T19:08:13.363Z,985.47
2022-09-28T19:09:13.488Z,985.43
2022-09-28T19:10:13.329Z,985.45
2022-09-28T19:11:13.311Z,985.44
2022-09-28T19:12:13.345Z,985.43
2022-09-28T19:13:13.280Z,985.44
2022-09-28T19:14:13.266Z,985.41
2022-09-28T19:15:13.251Z,985.45
2022-09-28T19:16:13.290Z,985.49
2022-09-28T19:17:13.215Z,985.48
2022-09-28T19:18:13.246Z,985.52
2022-09-28T19:19:13.191Z,985.50
2022-09-28T19:20:13.167Z,985.47
2022-09-28T19:21:13.182Z,985.50
2022-09-28T19:22:13.137Z,985.54
2022-09-28T19:23:13.122Z,985.50
2022-09-28T19:24:13.136Z,985.52
2022-09-28T19:25:13.084Z,985.51
2022-09-28T19:26:13.070Z,985.52
2022-09-28T19:27:13.052Z,985.54
2022-09-28T19:28:13.036Z,985.51
2022-09-28T19:29:13.030Z,985.56
2022-09-28T19:30:13.008Z,985.52
2022-09-28T19:31:13.016Z,985.54
2022-09-28T19:32:13.001Z,985.52
2022-09-28T19:33:12.953Z,985.52
2022-09-28T19:34:14.220Z,985.52
2022-09-28T19:35:12.919Z,985.50
2022-09-28T19:36:12.910Z,985.51
2022-09-28T19:37:12.890Z,985.48
2022-09-28T19:38:12.876Z,985.52
2022-09-28T19:39:12.855Z,985.53
2022-09-28T19:40:12.857Z,985.53
2022-09-28T19:41:12.857Z,985.56
2022-09-28T19:42:12.820Z,985.57
2022-09-28T19:43:12.791Z,985.57
2022-09-28T19:44:12.800Z,985.59
2022-09-28T19:45:12.781Z,985.55
2022-09-28T19:46:12.780Z,985.53
2022-09-28T19:47:12.751Z,985.55
2022-09-28T19:48:12.707Z,985.57
2022-09-28T19:49:12.691Z,985.60
2022-09-28T19:50:12.674Z,985.56
2022-09-28T19:51:12.655Z,985.57
2022-09-28T19:52:14.748Z,985.56
2022-09-28T19:53:12.622Z,985.57
2022-09-28T19:54:12.611Z,985.57
2022-09-28T19:55:12.590Z,985.52
2022-09-28T19:56:12.576Z,985.54
2022-09-28T19:57:12.565Z,985.56
2022-09-28T19:58:12.544Z,985.59
2022-09-28T19:59:12.526Z,985.60
2022-09-28T20:00:12.511Z,985.60
2022-09-28T20:01:12.550Z,985.65
2022-09-28T20:02:12.555Z,985.67
2022-09-28T20:03:12.516Z,985.72
2022-09-28T20:04:12.483Z,985.71
2022-09-28T20:05:12.440Z,985.75
2022-09-28T20:06:17.120Z,985.76
2022-09-28T20:07:12.391Z,985.78
2022-09-28T20:08:12.378Z,985.72
2022-09-28T20:09:12.431Z,985.71
2022-09-28T20:10:12.345Z,985.77
2022-09-28T20:11:12.325Z,985.68
2022-09-28T20:12:12.313Z,985.74
2022-09-28T20:13:12.321Z,985.71
2022-09-28T20:14:12.307Z,985.74
2022-09-28T20:15:12.261Z,985.72
2022-09-28T20:16:12.287Z,985.73
2022-09-28T20:17:12.231Z,985.74
2022-09-28T20:18:12.228Z,985.76
2022-09-28T20:19:12.299Z,985.77
2022-09-28T20:20:12.177Z,985.76
2022-09-28T20:21:14.116Z,985.76
2022-09-28T20:22:12.150Z,985.77
2022-09-28T20:23:12.126Z,985.74
2022-09-28T20:24:12.117Z,985.78
2022-09-28T20:25:12.125Z,985.75
2022-09-28T20:26:12.080Z,985.75
2022-09-28T20:27:12.062Z,985.80
2022-09-28T20:28:12.045Z,985.77
2022-09-28T20:29:12.061Z,985.85
2022-09-28T20:30:12.050Z,985.87
2022-09-28T20:31:12.068Z,985.89
2022-09-28T20:32:11.977Z,985.83
2022-09-28T20:33:19.046Z,985.87
2022-09-28T20:34:11.950Z,985.85
2022-09-28T20:35:11.928Z,985.86
2022-09-28T20:36:11.939Z,985.84
2022-09-28T20:37:11.893Z,985.88
2022-09-28T20:38:11.883Z,985.89
2022-09-28T20:39:11.928Z,985.88
2022-09-28T20:40:11.908Z,985.90
2022-09-28T20:41:11.831Z,985.88
2022-09-28T20:42:11.814Z,985.88
2022-09-28T20:43:11.794Z,985.87
2022-09-28T20:44:11.783Z,985.87
2022-09-28T20:45:11.763Z,985.91
2022-09-28T20:46:11.809Z,985.90
2022-09-28T20:47:11.726Z,985.93
2022-09-28T20:48:11.718Z,985.94
2022-09-28T20:49:11.701Z,985.91
2022-09-28T20:50:11.683Z,985.92
2022-09-28T20:51:11.738Z,985.90
2022-09-28T20:52:11.643Z,985.92
2022-09-28T20:53:11.631Z,985.92
2022-09-28T20:54:11.696Z,985.90
2022-09-28T20:55:11.598Z,985.90
2022-09-28T20:56:11.581Z,985.92
2022-09-28T20:57:11.593Z,985.97
2022-09-28T20:58:11.546Z,985.96
2022-09-28T20:59:11.528Z,985.94
2022-09-28T21:00:11.511Z,985.97
2022-09-28T21:01:11.539Z,985.96
2022-09-28T21:02:11.476Z,985.96
2022-09-28T21:03:11.569Z,985.96
2022-09-28T21:04:11.449Z,985.98
2022-09-28T21:05:11.428Z,985.99
2022-09-28T21:06:12.417Z,985.95
2022-09-28T21:07:11.453Z,985.93
2022-09-28T21:08:11.378Z,985.95
2022-09-28T21:09:11.388Z,985.92
2022-09-28T21:10:11.349Z,985.92
2022-09-28T21:11:11.326Z,985.92
2022-09-28T21:12:11.320Z,985.94
2022-09-28T21:13:11.331Z,985.98
2022-09-28T21:14:11.280Z,985.98
2022-09-28T21:15:11.263Z,986.00
2022-09-28T21:16:11.356Z,986.00
2022-09-28T21:17:11.233Z,985.95
2022-09-28T21:18:11.252Z,985.99
2022-09-28T21:19:11.195Z,985.98
2022-09-28T21:20:11.179Z,986.00
2022-09-28T21:21:11.165Z,985.97
2022-09-28T21:22:11.170Z,985.98
2022-09-28T21:23:11.190Z,985.99
2022-09-28T21:24:11.123Z,986.00
2022-09-28T21:25:11.095Z,986.02
2022-09-28T21:26:11.078Z,986.03
2022-09-28T21:27:11.069Z,986.01
2022-09-28T21:28:11.041Z,986.06
2022-09-28T21:29:11.029Z,986.06
2022-09-28T21:30:11.015Z,986.05
2022-09-28T21:31:11.011Z,986.08
2022-09-28T21:32:10.978Z,986.05
2022-09-28T21:33:10.965Z,986.06
2022-09-28T21:34:10.940Z,986.05
2022-09-28T21:35:10.974Z,986.08
2022-09-28T21:36:10.912Z,986.06
2022-09-28T21:37:10.891Z,986.04
2022-09-28T21:38:10.873Z,986.06
2022-09-28T21:39:10.873Z,986.08
2022-09-28T21:40:10.839Z,986.08
2022-09-28T21:41:10.830Z,986.08
2022-09-28T21:42:10.805Z,986.08
2022-09-28T21:43:10.794Z,986.10
2022-09-28T21:44:10.771Z,986.15
2022-09-28T21:45:10.762Z,986.15
2022-09-28T21:46:10.840Z,986.14
2022-09-28T21:47:10.725Z,986.18
2022-09-28T21:48:10.705Z,986.20
2022-09-28T21:49:10.691Z,986.20
2022-09-28T21:50:10.700Z,986.17
2022-09-28T21:51:10.655Z,986.18
2022-09-28T21:52:10.668Z,986.19
2022-09-28T21:53:10.635Z,986.17
2022-09-28T21:54:10.605Z,986.21
2022-09-28T21:55:10.590Z,986.21
2022-09-28T21:56:10.571Z,986.21
2022-09-28T21:57:10.583Z,986.21
2022-09-28T21:58:10.539Z,986.20
2022-09-28T21:59:10.522Z,986.16
2022-09-28T22:00:10.500Z,986.25
2022-09-28T22:01:10.533Z,986.23
2022-09-28T22:02:10.471Z,986.25
2022-09-28T22:03:10.569Z,986.24
2022-09-28T22:04:10.443Z,986.22
2022-09-28T22:05:10.421Z,986.27
2022-09-28T22:06:10.454Z,986.24
2022-09-28T22:07:10.395Z,986.29
2022-09-28T22:08:10.369Z,986.27
2022-09-28T22:09:10.353Z,986.28
2022-09-28T22:10:10.337Z,986.30
2022-09-28T22:11:10.319Z,986.27
2022-09-28T22:12:10.330Z,986.30
2022-09-28T22:13:10.285Z,986.30
2022-09-28T22:14:10.269Z,986.33
2022-09-28T22:15:10.254Z,986.31
2022-09-28T22:16:10.265Z,986.34
2022-09-28T22:17:10.254Z,986.36
2022-09-28T22:18:10.200Z,986.38
2022-09-28T22:19:10.181Z,986.37
2022-09-28T22:20:10.164Z,986.39
2022-09-28T22:21:10.147Z,986.38
2022-09-28T22:22:10.292Z,986.38
2022-09-28T22:23:10.123Z,986.37
2022-09-28T22:24:10.093Z,986.40
2022-09-28T22:25:10.080Z,986.44
2022-09-28T22:26:10.078Z,986.41
2022-09-28T22:27:10.044Z,986.43
2022-09-28T22:28:10.056Z,986.40
2022-09-28T22:29:10.014Z,986.43
2022-09-28T22:30:09.991Z,986.42
2022-09-28T22:31:10.057Z,986.43
2022-09-28T22:32:09.960Z,986.42
2022-09-28T22:33:09.974Z,986.41
2022-09-28T22:34:09.931Z,986.44
2022-09-28T22:35:09.910Z,986.42
2022-09-28T22:36:09.892Z,986.45
2022-09-28T22:37:09.877Z,986.44
2022-09-28T22:38:09.865Z,986.44
2022-09-28T22:39:09.847Z,986.43
2022-09-28T22:40:09.853Z,986.43
2022-09-28T22:41:09.810Z,986.42
2022-09-28T22:42:09.791Z,986.50
2022-09-28T22:43:09.779Z,986.50
2022-09-28T22:44:09.757Z,986.46
2022-09-28T22:45:09.772Z,986.47
2022-09-28T22:46:09.770Z,986.47
2022-09-28T22:47:09.709Z,986.45
2022-09-28T22:48:09.689Z,986.47
2022-09-28T22:49:09.676Z,986.48
2022-09-28T22:50:09.735Z,986.47
2022-09-28T22:51:09.645Z,986.54
2022-09-28T22:52:09.627Z,986.52
2022-09-28T22:53:09.624Z,986.52
2022-09-28T22:54:09.587Z,986.51
2022-09-28T22:55:09.635Z,986.55
2022-09-28T22:56:09.552Z,986.53
2022-09-28T22:57:09.546Z,986.52
2022-09-28T22:58:09.521Z,986.53
2022-09-28T22:59:09.505Z,986.50
2022-09-28T23:00:09.485Z,986.53
2022-09-28T23:01:09.555Z,986.49
2022-09-28T23:02:09.478Z,986.57
2022-09-28T23:03:09.495Z,986.51
2022-09-28T23:04:09.420Z,986.54
2022-09-28T23:05:09.411Z,986.53
2022-09-28T23:06:09.390Z,986.54
2022-09-28T23:07:09.369Z,986.56
2022-09-28T23:08:09.352Z,986.55
2022-09-28T23:09:09.344Z,986.51
2022-09-28T23:10:09.313Z,986.55
2022-09-28T23:11:09.326Z,986.52
2022-09-28T23:12:09.294Z,986.54
2022-09-28T23:13:09.284Z,986.51
2022-09-28T23:14:09.248Z,986.59
2022-09-28T23:15:09.234Z,986.55
2022-09-28T23:16:09.289Z,986.54
2022-09-28T23:17:09.201Z,986.52
2022-09-28T23:18:09.182Z,986.54
2022-09-28T23:19:09.170Z,986.50
2022-09-28T23:20:09.184Z,986.53
2022-09-28T23:21:09.135Z,986.52
2022-09-28T23:22:09.118Z,986.50
2022-09-28T23:23:09.099Z,986.50
2022-09-28T23:24:09.084Z,986.52
2022-09-28T23:25:09.065Z,986.55
2022-09-28T23:26:09.056Z,986.54
2022-09-28T23:27:09.031Z,986.55
2022-09-28T23:28:09.012Z,986.54
2022-09-28T23:29:08.998Z,986.52
2022-09-28T23:30:08.980Z,986.54
2022-09-28T23:31:09.082Z,986.53
2022-09-28T23:32:08.944Z,986.55
2022-09-28T23:33:08.927Z,986.54
2022-09-28T23:34:08.916Z,986.57
2022-09-28T23:35:08.891Z,986.55
2022-09-28T23:36:08.881Z,986.56
2022-09-28T23:37:08.920Z,986.56
2022-09-28T23:38:08.849Z,986.58
2022-09-28T23:39:08.830Z,986.58
2022-09-28T23:40:08.818Z,986.61
2022-09-28T23:41:08.793Z,986.60
2022-09-28T23:42:08.774Z,986.63
2022-09-28T23:43:08.798Z,986.61
2022-09-28T23:44:08.753Z,986.63
2022-09-28T23:45:08.726Z,986.64
2022-09-28T23:46:08.738Z,986.62
2022-09-28T23:47:08.687Z,986.66
2022-09-28T23:48:08.677Z,986.59
2022-09-28T23:49:08.687Z,986.60
2022-09-28T23:50:08.635Z,986.61
2022-09-28T23:51:08.622Z,986.63
2022-09-28T23:52:08.600Z,986.66
2022-09-28T23:53:08.590Z,986.62
2022-09-28T23:54:08.566Z,986.65
2022-09-28T23:55:08.555Z,986.61
2022-09-28T23:56:08.533Z,986.61
2022-09-28T23:57:08.523Z,986.59
2022-09-28T23:58:08.531Z,986.59
2022-09-28T23:59:08.483Z,986.60
